Sea Drift — WDC2818 — position and weather

sailwx.info

Track history (hours):
 
Tides and Currents Weather Stations Pressure Air Temp Water Temp Dewpoint Dewpoint Depression Visibility Wind Speed Wind Dir Waves Ship Positions

Sea Drift

Owner: Marquette Transportation Company Gulf-Inland, LLC, Jefferson, LA. More information available from US FCC via Universal Licensing System and Coast Guard Vessel Documentation Center.

Last reported at 2017-Nov-04 05:42 UTC. Time now 2017-Nov-19 12:26 UTC.
Position N 30°03' W 093°43'.
Warning: this ship's position is 15 days out of date.

Length 206 m; draft 3 m.

MMSI: 366998080.

Date/timePositionNaut miles runAvg speedWind from/ knotsBaromVisibWave heightAir tempDewpointWater temp
2017-Nov-04 05:42N 30°03' W 093°43'1 3.4
2017-Nov-04 05:30N 30°03' W 093°43'2 3.3
2017-Nov-04 05:00N 30°04' W 093°41'2 3.3
2017-Nov-04 04:30N 30°04' W 093°39'2 3.5
2017-Nov-04 04:00N 30°04' W 093°37'2 3.5
2017-Nov-04 03:30N 30°04' W 093°35'2 3.5
2017-Nov-04 03:00N 30°04' W 093°33'2 3.6
2017-Nov-04 02:30N 30°04' W 093°31'2 3.5
2017-Nov-04 02:00N 30°04' W 093°29'2 3.3
2017-Nov-04 01:30N 30°04' W 093°27'1 1.7
2017-Nov-04 01:00N 30°04' W 093°26'2 3.2
2017-Nov-04 00:30N 30°04' W 093°24'2 3.4
2017-Nov-04 00:00N 30°04' W 093°22'1 2.8
2017-Nov-03 23:30N 30°04' W 093°21'2 3.2
2017-Nov-03 23:00N 30°05' W 093°19'1 2.3
2017-Nov-03 22:30N 30°06' W 093°18'1 2.2
2017-Nov-03 22:00N 30°05' W 093°18'1 1.2
2017-Nov-03 21:30N 30°05' W 093°17'0 0.7
2017-Nov-03 21:00N 30°05' W 093°17'0 0.0
2017-Nov-03 20:30N 30°05' W 093°17'0 0.0
2017-Nov-03 20:00N 30°05' W 093°17'0 0.0
2017-Nov-03 19:30N 30°05' W 093°17'0 0.0
2017-Nov-03 19:00N 30°05' W 093°17'0 0.0
2017-Nov-03 18:30N 30°05' W 093°17'0 0.1
2017-Nov-03 18:00N 30°05' W 093°17'0 0.0
2017-Nov-03 17:30N 30°05' W 093°17'0 0.0
2017-Nov-03 17:00N 30°05' W 093°17'0 0.1
2017-Nov-03 16:30N 30°05' W 093°17'0 0.1
2017-Nov-03 16:00N 30°05' W 093°17'1 2.3
2017-Nov-03 15:30N 30°05' W 093°18'1 2.4
2017-Nov-03 15:00N 30°06' W 093°19'2 4.5
2017-Nov-03 14:30N 30°04' W 093°21'1 3.0
2017-Nov-03 14:00N 30°04' W 093°22'0 0.1
2017-Nov-03 13:30N 30°04' W 093°22'0 0.0
2017-Nov-03 13:00N 30°04' W 093°22'0 0.0
2017-Nov-03 12:30N 30°04' W 093°22'0 0.1
2017-Nov-03 12:00N 30°04' W 093°22'0 0.0
2017-Nov-03 11:30N 30°04' W 093°22'0 0.1
2017-Nov-03 11:00N 30°04' W 093°22'0 0.0
2017-Nov-03 10:30N 30°04' W 093°22'0 0.0
2017-Nov-03 10:00N 30°04' W 093°22'0 0.1
2017-Nov-03 09:30N 30°04' W 093°22'0 0.0
2017-Nov-03 09:00N 30°04' W 093°22'0 0.0
2017-Nov-03 08:30N 30°04' W 093°22'0 0.0
2017-Nov-03 08:00N 30°04' W 093°22'0 0.0
2017-Nov-03 07:30N 30°04' W 093°22'0 0.1
2017-Nov-03 07:00N 30°04' W 093°22'0 0.0
2017-Nov-03 06:30N 30°04' W 093°22'0 0.0
2017-Nov-03 06:00N 30°04' W 093°22'0 0.0
2017-Nov-03 05:30N 30°04' W 093°22'0 0.1
2017-Nov-03 05:00N 30°04' W 093°22'0 0.0
2017-Nov-03 04:30N 30°04' W 093°22'0 0.0
2017-Nov-03 04:00N 30°04' W 093°22'0 0.2
2017-Nov-03 03:30N 30°04' W 093°22'0 0.1
2017-Nov-03 03:01N 30°04' W 093°22'0 0.5
2017-Nov-03 02:30N 30°04' W 093°22'2 3.2
2017-Nov-03 02:00N 30°04' W 093°24'2 3.7
2017-Nov-03 01:30N 30°04' W 093°26'2 3.7
2017-Nov-03 01:00N 30°04' W 093°28'2 3.8
2017-Nov-03 00:30N 30°04' W 093°31'2 3.8
2017-Nov-03 00:00N 30°04' W 093°33'2 3.8
2017-Nov-02 23:30N 30°04' W 093°35'2 4.0
2017-Nov-02 23:00N 30°04' W 093°37'2 4.4
2017-Nov-02 22:30N 30°04' W 093°40'71 2.8
2017-Nov-01 20:40N 29°32' W 094°54'1 4.4
2017-Nov-01 20:28N 29°33' W 094°54'2 5.4
2017-Nov-01 20:00N 29°35' W 094°56'3 5.5
2017-Nov-01 19:30N 29°37' W 094°57'3 5.4
2017-Nov-01 19:00N 29°39' W 094°58'3 5.5
2017-Nov-01 18:30N 29°42' W 094°60'70 2.1
2017-Oct-31 08:36N 30°03' W 093°43'1 4.0
2017-Oct-31 08:28N 30°03' W 093°43'2 3.8
2017-Oct-31 08:00N 30°04' W 093°41'2 3.8
2017-Oct-31 07:30N 30°04' W 093°39'2 3.9
2017-Oct-31 07:01N 30°04' W 093°36'2 4.0
2017-Oct-31 06:30N 30°04' W 093°34'2 4.0
2017-Oct-31 06:00N 30°04' W 093°32'2 4.1
2017-Oct-31 05:31N 30°04' W 093°29'2 4.2
2017-Oct-31 05:01N 30°04' W 093°27'2 4.2
2017-Oct-31 04:31N 30°04' W 093°24'2 3.9
2017-Oct-31 04:00N 30°04' W 093°22'0 0.1
2017-Oct-31 03:31N 30°04' W 093°22'0 0.0
2017-Oct-31 03:01N 30°04' W 093°22'0 0.5
2017-Oct-31 02:30N 30°04' W 093°22'1 1.3
2017-Oct-31 02:00N 30°04' W 093°21'2 3.1
2017-Oct-31 01:30N 30°05' W 093°20'2 3.4
2017-Oct-31 01:01N 30°06' W 093°18'1 2.3
2017-Oct-31 00:31N 30°05' W 093°17'1 2.2
2017-Oct-31 00:00N 30°04' W 093°16'0 0.0
2017-Oct-30 23:31N 30°04' W 093°16'0 0.0
2017-Oct-30 23:00N 30°04' W 093°16'0 0.0
2017-Oct-30 22:30N 30°04' W 093°16'0 0.0
2017-Oct-30 22:01N 30°04' W 093°16'0 0.0
2017-Oct-30 21:31N 30°04' W 093°16'0 0.0
2017-Oct-30 21:01N 30°04' W 093°16'0 0.0
2017-Oct-30 20:30N 30°04' W 093°16'0 0.4
2017-Oct-30 20:01N 30°04' W 093°16'1 2.5
2017-Oct-30 19:31N 30°03' W 093°16'2 4.6
2017-Oct-30 19:00N 30°01' W 093°14'2 3.8
2017-Oct-30 18:30N 29°60' W 093°13'0 0.1
2017-Oct-30 18:00N 29°60' W 093°13'0 0.2
2017-Oct-30 17:30N 29°60' W 093°13'0 0.3
2017-Oct-30 17:00N 29°59' W 093°13'1 2.4
2017-Oct-30 16:30N 29°59' W 093°12'2 4.9
2017-Oct-30 16:00N 29°57' W 093°10'2 4.5
2017-Oct-30 15:30N 29°56' W 093°08'37 4.9
2017-Oct-30 07:53N 29°53' W 092°25'2 4.6
2017-Oct-30 07:26N 29°52' W 092°23'2 4.2
2017-Oct-30 07:00N 29°51' W 092°22'2 4.4
2017-Oct-30 06:30N 29°50' W 092°19'2 4.0
2017-Oct-30 06:00N 29°49' W 092°17'2 4.8
2017-Oct-30 05:30N 29°48' W 092°15'2 4.6
2017-Oct-30 05:00N 29°47' W 092°12'2 4.2
2017-Oct-30 04:30N 29°47' W 092°10'2 4.9
2017-Oct-30 04:00N 29°47' W 092°07'3 5.1
2017-Oct-30 03:30N 29°48' W 092°05'2 5.0
2017-Oct-30 03:00N 29°49' W 092°02'2 5.0
2017-Oct-30 02:30N 29°50' W 091°59'2 5.0
2017-Oct-30 02:00N 29°51' W 091°56'2 1.2
2017-Oct-29 23:59N 29°53' W 091°56'0 0.1
2017-Oct-29 23:28N 29°53' W 091°56'53 2.7
2017-Oct-29 03:56N 29°36' W 090°58'38 0.8
2017-Oct-27 04:33N 29°57' W 090°22'0 1.2
2017-Oct-27 04:23N 29°57' W 090°22'0 0.6
2017-Oct-27 04:00N 29°56' W 090°22'  
Track history (hours):
 
Tides and Currents Weather Stations Pressure Air Temp Water Temp Dewpoint Dewpoint Depression Visibility Wind Speed Wind Dir Waves Ship Positions

Sea Drift

Owner: Marquette Transportation Company Gulf-Inland, LLC, Jefferson, LA. More information available from US FCC via Universal Licensing System and Coast Guard Vessel Documentation Center.

Last reported at 2017-Nov-04 05:42 UTC. Time now 2017-Nov-19 12:26 UTC.
Position N 30°03' W 093°43'.
Warning: this ship's position is 15 days out of date.

Length 206 m; draft 3 m.

MMSI: 366998080.

Date/timePositionNaut miles runAvg speedWind from/ knotsBaromVisibWave heightAir tempDewpointWater temp
2017-Nov-04 05:42N 30°03' W 093°43'1 3.4
2017-Nov-04 05:30N 30°03' W 093°43'2 3.3
2017-Nov-04 05:00N 30°04' W 093°41'2 3.3
2017-Nov-04 04:30N 30°04' W 093°39'2 3.5
2017-Nov-04 04:00N 30°04' W 093°37'2 3.5
2017-Nov-04 03:30N 30°04' W 093°35'2 3.5
2017-Nov-04 03:00N 30°04' W 093°33'2 3.6
2017-Nov-04 02:30N 30°04' W 093°31'2 3.5
2017-Nov-04 02:00N 30°04' W 093°29'2 3.3
2017-Nov-04 01:30N 30°04' W 093°27'1 1.7
2017-Nov-04 01:00N 30°04' W 093°26'2 3.2
2017-Nov-04 00:30N 30°04' W 093°24'2 3.4
2017-Nov-04 00:00N 30°04' W 093°22'1 2.8
2017-Nov-03 23:30N 30°04' W 093°21'2 3.2
2017-Nov-03 23:00N 30°05' W 093°19'1 2.3
2017-Nov-03 22:30N 30°06' W 093°18'1 2.2
2017-Nov-03 22:00N 30°05' W 093°18'1 1.2
2017-Nov-03 21:30N 30°05' W 093°17'0 0.7
2017-Nov-03 21:00N 30°05' W 093°17'0 0.0
2017-Nov-03 20:30N 30°05' W 093°17'0 0.0
2017-Nov-03 20:00N 30°05' W 093°17'0 0.0
2017-Nov-03 19:30N 30°05' W 093°17'0 0.0
2017-Nov-03 19:00N 30°05' W 093°17'0 0.0
2017-Nov-03 18:30N 30°05' W 093°17'0 0.1
2017-Nov-03 18:00N 30°05' W 093°17'0 0.0
2017-Nov-03 17:30N 30°05' W 093°17'0 0.0
2017-Nov-03 17:00N 30°05' W 093°17'0 0.1
2017-Nov-03 16:30N 30°05' W 093°17'0 0.1
2017-Nov-03 16:00N 30°05' W 093°17'1 2.3
2017-Nov-03 15:30N 30°05' W 093°18'1 2.4
2017-Nov-03 15:00N 30°06' W 093°19'2 4.5
2017-Nov-03 14:30N 30°04' W 093°21'1 3.0
2017-Nov-03 14:00N 30°04' W 093°22'0 0.1
2017-Nov-03 13:30N 30°04' W 093°22'0 0.0
2017-Nov-03 13:00N 30°04' W 093°22'0 0.0
2017-Nov-03 12:30N 30°04' W 093°22'0 0.1
2017-Nov-03 12:00N 30°04' W 093°22'0 0.0
2017-Nov-03 11:30N 30°04' W 093°22'0 0.1
2017-Nov-03 11:00N 30°04' W 093°22'0 0.0
2017-Nov-03 10:30N 30°04' W 093°22'0 0.0
2017-Nov-03 10:00N 30°04' W 093°22'0 0.1
2017-Nov-03 09:30N 30°04' W 093°22'0 0.0
2017-Nov-03 09:00N 30°04' W 093°22'0 0.0
2017-Nov-03 08:30N 30°04' W 093°22'0 0.0
2017-Nov-03 08:00N 30°04' W 093°22'0 0.0
2017-Nov-03 07:30N 30°04' W 093°22'0 0.1
2017-Nov-03 07:00N 30°04' W 093°22'0 0.0
2017-Nov-03 06:30N 30°04' W 093°22'0 0.0
2017-Nov-03 06:00N 30°04' W 093°22'0 0.0
2017-Nov-03 05:30N 30°04' W 093°22'0 0.1
2017-Nov-03 05:00N 30°04' W 093°22'0 0.0
2017-Nov-03 04:30N 30°04' W 093°22'0 0.0
2017-Nov-03 04:00N 30°04' W 093°22'0 0.2
2017-Nov-03 03:30N 30°04' W 093°22'0 0.1
2017-Nov-03 03:01N 30°04' W 093°22'0 0.5
2017-Nov-03 02:30N 30°04' W 093°22'2 3.2
2017-Nov-03 02:00N 30°04' W 093°24'2 3.7
2017-Nov-03 01:30N 30°04' W 093°26'2 3.7
2017-Nov-03 01:00N 30°04' W 093°28'2 3.8
2017-Nov-03 00:30N 30°04' W 093°31'2 3.8
2017-Nov-03 00:00N 30°04' W 093°33'2 3.8
2017-Nov-02 23:30N 30°04' W 093°35'2 4.0
2017-Nov-02 23:00N 30°04' W 093°37'2 4.4
2017-Nov-02 22:30N 30°04' W 093°40'71 2.8
2017-Nov-01 20:40N 29°32' W 094°54'1 4.4
2017-Nov-01 20:28N 29°33' W 094°54'2 5.4
2017-Nov-01 20:00N 29°35' W 094°56'3 5.5
2017-Nov-01 19:30N 29°37' W 094°57'3 5.4
2017-Nov-01 19:00N 29°39' W 094°58'3 5.5
2017-Nov-01 18:30N 29°42' W 094°60'70 2.1
2017-Oct-31 08:36N 30°03' W 093°43'1 4.0
2017-Oct-31 08:28N 30°03' W 093°43'2 3.8
2017-Oct-31 08:00N 30°04' W 093°41'2 3.8
2017-Oct-31 07:30N 30°04' W 093°39'2 3.9
2017-Oct-31 07:01N 30°04' W 093°36'2 4.0
2017-Oct-31 06:30N 30°04' W 093°34'2 4.0
2017-Oct-31 06:00N 30°04' W 093°32'2 4.1
2017-Oct-31 05:31N 30°04' W 093°29'2 4.2
2017-Oct-31 05:01N 30°04' W 093°27'2 4.2
2017-Oct-31 04:31N 30°04' W 093°24'2 3.9
2017-Oct-31 04:00N 30°04' W 093°22'0 0.1
2017-Oct-31 03:31N 30°04' W 093°22'0 0.0
2017-Oct-31 03:01N 30°04' W 093°22'0 0.5
2017-Oct-31 02:30N 30°04' W 093°22'1 1.3
2017-Oct-31 02:00N 30°04' W 093°21'2 3.1
2017-Oct-31 01:30N 30°05' W 093°20'2 3.4
2017-Oct-31 01:01N 30°06' W 093°18'1 2.3
2017-Oct-31 00:31N 30°05' W 093°17'1 2.2
2017-Oct-31 00:00N 30°04' W 093°16'0 0.0
2017-Oct-30 23:31N 30°04' W 093°16'0 0.0
2017-Oct-30 23:00N 30°04' W 093°16'0 0.0
2017-Oct-30 22:30N 30°04' W 093°16'0 0.0
2017-Oct-30 22:01N 30°04' W 093°16'0 0.0
2017-Oct-30 21:31N 30°04' W 093°16'0 0.0
2017-Oct-30 21:01N 30°04' W 093°16'0 0.0
2017-Oct-30 20:30N 30°04' W 093°16'0 0.4
2017-Oct-30 20:01N 30°04' W 093°16'1 2.5
2017-Oct-30 19:31N 30°03' W 093°16'2 4.6
2017-Oct-30 19:00N 30°01' W 093°14'2 3.8
2017-Oct-30 18:30N 29°60' W 093°13'0 0.1
2017-Oct-30 18:00N 29°60' W 093°13'0 0.2
2017-Oct-30 17:30N 29°60' W 093°13'0 0.3
2017-Oct-30 17:00N 29°59' W 093°13'1 2.4
2017-Oct-30 16:30N 29°59' W 093°12'2 4.9
2017-Oct-30 16:00N 29°57' W 093°10'2 4.5
2017-Oct-30 15:30N 29°56' W 093°08'37 4.9
2017-Oct-30 07:53N 29°53' W 092°25'2 4.6
2017-Oct-30 07:26N 29°52' W 092°23'2 4.2
2017-Oct-30 07:00N 29°51' W 092°22'2 4.4
2017-Oct-30 06:30N 29°50' W 092°19'2 4.0
2017-Oct-30 06:00N 29°49' W 092°17'2 4.8
2017-Oct-30 05:30N 29°48' W 092°15'2 4.6
2017-Oct-30 05:00N 29°47' W 092°12'2 4.2
2017-Oct-30 04:30N 29°47' W 092°10'2 4.9
2017-Oct-30 04:00N 29°47' W 092°07'3 5.1
2017-Oct-30 03:30N 29°48' W 092°05'2 5.0
2017-Oct-30 03:00N 29°49' W 092°02'2 5.0
2017-Oct-30 02:30N 29°50' W 091°59'2 5.0
2017-Oct-30 02:00N 29°51' W 091°56'2 1.2
2017-Oct-29 23:59N 29°53' W 091°56'0 0.1
2017-Oct-29 23:28N 29°53' W 091°56'53 2.7
2017-Oct-29 03:56N 29°36' W 090°58'38 0.8
2017-Oct-27 04:33N 29°57' W 090°22'0 1.2
2017-Oct-27 04:23N 29°57' W 090°22'0 0.6
2017-Oct-27 04:00N 29°56' W 090°22'  

Dump ship's entire track history